Aviation Digital Data Service (ADDS)

Output produced by METARs form (1833 UTC 25 September 2020)
found at http://www.aviationweather.gov/metar/data/
 
METAR text: EIDW 251830Z 30009KT 9999 FEW020 08/03 Q1016 NOSIG
Conditions at: EIDW (DUBLIN AIRPORT , IE) observed 1830 UTC 25 September 2020
Temperature: 8.0°C (46°F)
Dewpoint: 3.0°C (37°F) [RH = 71%]
Pressure (altimeter): 30.00 inches Hg (1016.0 mb)
Winds: from the WNW (300 degrees) at 10 MPH (9 knots; 4.6 m/s)
Visibility: 6 or more miles (10+ km)
Ceiling: at least 12,000 feet AGL
Clouds: few clouds at 2000 feet AGL
Weather: no significant weather observed at this time

METAR text: EIDW 251800Z 31014KT 9999 FEW020 10/02 Q1016 NOSIG
Conditions at: EIDW (DUBLIN AIRPORT , IE) observed 1800 UTC 25 September 2020
Temperature: 10.0°C (50°F)
Dewpoint: 2.0°C (36°F) [RH = 57%]
Pressure (altimeter): 30.00 inches Hg (1016.0 mb)
Winds: from the NW (310 degrees) at 16 MPH (14 knots; 7.2 m/s)
Visibility: 6 or more miles (10+ km)
Ceiling: at least 12,000 feet AGL
Clouds: few clouds at 2000 feet AGL
Weather: no significant weather observed at this time

METAR text: EIDW 251730Z 32012KT 9999 -SHRA FEW020CB SCT040 10/04 Q1016 NOSIG
Conditions at: EIDW (DUBLIN AIRPORT , IE) observed 1730 UTC 25 September 2020
Temperature: 10.0°C (50°F)
Dewpoint: 4.0°C (39°F) [RH = 66%]
Pressure (altimeter): 30.00 inches Hg (1016.0 mb)
Winds: from the NW (320 degrees) at 14 MPH (12 knots; 6.2 m/s)
Visibility: 6 or more miles (10+ km)
Ceiling: at least 12,000 feet AGL
Clouds: few clouds at 2000 feet AGL
scattered clouds at 4000 feet AGL
Weather: -SHRA  (light rain showers)

METAR text: EIDW 251700Z 31013KT 9999 FEW020CB SCT050 11/05 Q1015 NOSIG
Conditions at: EIDW (DUBLIN AIRPORT , IE) observed 1700 UTC 25 September 2020
Temperature: 11.0°C (52°F)
Dewpoint: 5.0°C (41°F) [RH = 66%]
Pressure (altimeter): 29.97 inches Hg (1015.0 mb)
Winds: from the NW (310 degrees) at 15 MPH (13 knots; 6.7 m/s)
Visibility: 6 or more miles (10+ km)
Ceiling: at least 12,000 feet AGL
Clouds: few clouds at 2000 feet AGL
scattered clouds at 5000 feet AGL
Weather: no significant weather observed at this time

METAR text: EIDW 251630Z 32013KT 9999 FEW020CB SCT050 11/05 Q1015 NOSIG
Conditions at: EIDW (DUBLIN AIRPORT , IE) observed 1630 UTC 25 September 2020
Temperature: 11.0°C (52°F)
Dewpoint: 5.0°C (41°F) [RH = 66%]
Pressure (altimeter): 29.97 inches Hg (1015.0 mb)
Winds: from the NW (320 degrees) at 15 MPH (13 knots; 6.7 m/s)
Visibility: 6 or more miles (10+ km)
Ceiling: at least 12,000 feet AGL
Clouds: few clouds at 2000 feet AGL
scattered clouds at 5000 feet AGL
Weather: no significant weather observed at this time

METAR text: EIDW 251600Z 32015KT 9999 SCT026CB SCT050 11/04 Q1015 RESHGS NOSIG
Conditions at: EIDW (DUBLIN AIRPORT , IE) observed 1600 UTC 25 September 2020
Temperature: 11.0°C (52°F)
Dewpoint: 4.0°C (39°F) [RH = 62%]
Pressure (altimeter): 29.97 inches Hg (1015.0 mb)
Winds: from the NW (320 degrees) at 17 MPH (15 knots; 7.7 m/s)
Visibility: 6 or more miles (10+ km)
Ceiling: at least 12,000 feet AGL
Clouds: scattered clouds at 2600 feet AGL
scattered clouds at 5000 feet AGL
Weather: no significant weather observed at this time

METAR text: EIDW 251530Z 32011KT 9999 -SHRA SCT026CB SCT050 11/06 Q1015 NOSIG
Conditions at: EIDW (DUBLIN AIRPORT , IE) observed 1530 UTC 25 September 2020
Temperature: 11.0°C (52°F)
Dewpoint: 6.0°C (43°F) [RH = 71%]
Pressure (altimeter): 29.97 inches Hg (1015.0 mb)
Winds: from the NW (320 degrees) at 13 MPH (11 knots; 5.7 m/s)
Visibility: 6 or more miles (10+ km)
Ceiling: at least 12,000 feet AGL
Clouds: scattered clouds at 2600 feet AGL
scattered clouds at 5000 feet AGL
Weather: -SHRA  (light rain showers)

METAR text: EIDW 251500Z 32015G31KT 9999 -SHRA SCT026 SCT050 12/06 Q1014 NOSIG
Conditions at: EIDW (DUBLIN AIRPORT , IE) observed 1500 UTC 25 September 2020
Temperature: 12.0°C (54°F)
Dewpoint: 6.0°C (43°F) [RH = 67%]
Pressure (altimeter): 29.94 inches Hg (1014.0 mb)
Winds: from the NW (320 degrees) at 17 MPH (15 knots; 7.7 m/s)
gusting to 36 MPH (31 knots; 15.9 m/s)
Visibility: 6 or more miles (10+ km)
Ceiling: at least 12,000 feet AGL
Clouds: scattered clouds at 2600 feet AGL
scattered clouds at 5000 feet AGL
Weather: -SHRA  (light rain showers)

METAR text: EIDW 251430Z 33015KT 9999 VCSH SCT026 SCT050 11/05 Q1014 NOSIG
Conditions at: EIDW (DUBLIN AIRPORT , IE) observed 1430 UTC 25 September 2020
Temperature: 11.0°C (52°F)
Dewpoint: 5.0°C (41°F) [RH = 66%]
Pressure (altimeter): 29.94 inches Hg (1014.0 mb)
Winds: from the NNW (330 degrees) at 17 MPH (15 knots; 7.7 m/s)
Visibility: 6 or more miles (10+ km)
Ceiling: at least 12,000 feet AGL
Clouds: scattered clouds at 2600 feet AGL
scattered clouds at 5000 feet AGL
Weather: VCSH  (showers in vicinity)

METAR text: EIDW 251400Z 33017KT 9999 VCSH SCT026 BKN050 BKN100 11/07 Q1014 NOSIG
Conditions at: EIDW (DUBLIN AIRPORT , IE) observed 1400 UTC 25 September 2020
Temperature: 11.0°C (52°F)
Dewpoint: 7.0°C (45°F) [RH = 76%]
Pressure (altimeter): 29.94 inches Hg (1014.0 mb)
Winds: from the NNW (330 degrees) at 20 MPH (17 knots; 8.7 m/s)
Visibility: 6 or more miles (10+ km)
Ceiling: 5000 feet AGL
Clouds: scattered clouds at 2600 feet AGL
broken clouds at 5000 feet AGL
broken clouds at 10000 feet AGL
Weather: VCSH  (showers in vicinity)

METAR text: EIDW 251330Z 32017KT 9999 SCT026 BKN044 10/07 Q1014 NOSIG
Conditions at: EIDW (DUBLIN AIRPORT , IE) observed 1330 UTC 25 September 2020
Temperature: 10.0°C (50°F)
Dewpoint: 7.0°C (45°F) [RH = 82%]
Pressure (altimeter): 29.94 inches Hg (1014.0 mb)
Winds: from the NW (320 degrees) at 20 MPH (17 knots; 8.7 m/s)
Visibility: 6 or more miles (10+ km)
Ceiling: 4400 feet AGL
Clouds: scattered clouds at 2600 feet AGL
broken clouds at 4400 feet AGL
Weather: no significant weather observed at this time

METAR text: EIDW 251300Z 33017KT 9999 VCSH SCT026 BKN044 12/07 Q1014 NOSIG
Conditions at: EIDW (DUBLIN AIRPORT , IE) observed 1300 UTC 25 September 2020
Temperature: 12.0°C (54°F)
Dewpoint: 7.0°C (45°F) [RH = 71%]
Pressure (altimeter): 29.94 inches Hg (1014.0 mb)
Winds: from the NNW (330 degrees) at 20 MPH (17 knots; 8.7 m/s)
Visibility: 6 or more miles (10+ km)
Ceiling: 4400 feet AGL
Clouds: scattered clouds at 2600 feet AGL
broken clouds at 4400 feet AGL
Weather: VCSH  (showers in vicinity)

METAR text: EIDW 251230Z 33020KT 9999 BKN025 11/07 Q1014 NOSIG
Conditions at: EIDW (DUBLIN AIRPORT , IE) observed 1230 UTC 25 September 2020
Temperature: 11.0°C (52°F)
Dewpoint: 7.0°C (45°F) [RH = 76%]
Pressure (altimeter): 29.94 inches Hg (1014.0 mb)
Winds: from the NNW (330 degrees) at 23 MPH (20 knots; 10.3 m/s)
Visibility: 6 or more miles (10+ km)
Ceiling: 2500 feet AGL
Clouds: broken clouds at 2500 feet AGL
Weather: no significant weather observed at this time

METAR text: EIDW 251200Z 32018KT 9999 BKN025 11/06 Q1013 NOSIG
Conditions at: EIDW (DUBLIN AIRPORT , IE) observed 1200 UTC 25 September 2020
Temperature: 11.0°C (52°F)
Dewpoint: 6.0°C (43°F) [RH = 71%]
Pressure (altimeter): 29.91 inches Hg (1013.0 mb)
Winds: from the NW (320 degrees) at 21 MPH (18 knots; 9.3 m/s)
Visibility: 6 or more miles (10+ km)
Ceiling: 2500 feet AGL
Clouds: broken clouds at 2500 feet AGL
Weather: no significant weather observed at this time

METAR text: EIDW 251130Z 31017KT 9999 SCT020 12/07 Q1013 NOSIG
Conditions at: EIDW (DUBLIN AIRPORT , IE) observed 1130 UTC 25 September 2020
Temperature: 12.0°C (54°F)
Dewpoint: 7.0°C (45°F) [RH = 71%]
Pressure (altimeter): 29.91 inches Hg (1013.0 mb)
Winds: from the NW (310 degrees) at 20 MPH (17 knots; 8.7 m/s)
Visibility: 6 or more miles (10+ km)
Ceiling: at least 12,000 feet AGL
Clouds: scattered clouds at 2000 feet AGL
Weather: no significant weather observed at this time

METAR text: EIDW 251100Z 31016KT 9999 SCT020 11/08 Q1013 NOSIG
Conditions at: EIDW (DUBLIN AIRPORT , IE) observed 1100 UTC 25 September 2020
Temperature: 11.0°C (52°F)
Dewpoint: 8.0°C (46°F) [RH = 82%]
Pressure (altimeter): 29.91 inches Hg (1013.0 mb)
Winds: from the NW (310 degrees) at 18 MPH (16 knots; 8.2 m/s)
Visibility: 6 or more miles (10+ km)
Ceiling: at least 12,000 feet AGL
Clouds: scattered clouds at 2000 feet AGL
Weather: no significant weather observed at this time

METAR text: EIDW 251030Z 31016KT 9999 FEW020 11/07 Q1013 NOSIG
Conditions at: EIDW (DUBLIN AIRPORT , IE) observed 1030 UTC 25 September 2020
Temperature: 11.0°C (52°F)
Dewpoint: 7.0°C (45°F) [RH = 76%]
Pressure (altimeter): 29.91 inches Hg (1013.0 mb)
Winds: from the NW (310 degrees) at 18 MPH (16 knots; 8.2 m/s)
Visibility: 6 or more miles (10+ km)
Ceiling: at least 12,000 feet AGL
Clouds: few clouds at 2000 feet AGL
Weather: no significant weather observed at this time

METAR text: EIDW 251000Z 31014KT 9999 FEW020 10/07 Q1012 NOSIG
Conditions at: EIDW (DUBLIN AIRPORT , IE) observed 1000 UTC 25 September 2020
Temperature: 10.0°C (50°F)
Dewpoint: 7.0°C (45°F) [RH = 82%]
Pressure (altimeter): 29.88 inches Hg (1012.0 mb)
Winds: from the NW (310 degrees) at 16 MPH (14 knots; 7.2 m/s)
Visibility: 6 or more miles (10+ km)
Ceiling: at least 12,000 feet AGL
Clouds: few clouds at 2000 feet AGL
Weather: no significant weather observed at this time

METAR text: EIDW 250930Z 31014KT 9999 FEW018 10/07 Q1012 NOSIG
Conditions at: EIDW (DUBLIN AIRPORT , IE) observed 0930 UTC 25 September 2020
Temperature: 10.0°C (50°F)
Dewpoint: 7.0°C (45°F) [RH = 82%]
Pressure (altimeter): 29.88 inches Hg (1012.0 mb)
Winds: from the NW (310 degrees) at 16 MPH (14 knots; 7.2 m/s)
Visibility: 6 or more miles (10+ km)
Ceiling: at least 12,000 feet AGL
Clouds: few clouds at 1800 feet AGL
Weather: no significant weather observed at this time

METAR text: EIDW 250900Z 30014KT 9999 FEW018 09/06 Q1012 NOSIG
Conditions at: EIDW (DUBLIN AIRPORT , IE) observed 0900 UTC 25 September 2020
Temperature: 9.0°C (48°F)
Dewpoint: 6.0°C (43°F) [RH = 81%]
Pressure (altimeter): 29.88 inches Hg (1012.0 mb)
Winds: from the WNW (300 degrees) at 16 MPH (14 knots; 7.2 m/s)
Visibility: 6 or more miles (10+ km)
Ceiling: at least 12,000 feet AGL
Clouds: few clouds at 1800 feet AGL
Weather: no significant weather observed at this time

METAR text: EIDW 250830Z 30014KT 9999 FEW017 08/05 Q1011 NOSIG
Conditions at: EIDW (DUBLIN AIRPORT , IE) observed 0830 UTC 25 September 2020
Temperature: 8.0°C (46°F)
Dewpoint: 5.0°C (41°F) [RH = 81%]
Pressure (altimeter): 29.85 inches Hg (1011.0 mb)
Winds: from the WNW (300 degrees) at 16 MPH (14 knots; 7.2 m/s)
Visibility: 6 or more miles (10+ km)
Ceiling: at least 12,000 feet AGL
Clouds: few clouds at 1700 feet AGL
Weather: no significant weather observed at this time

METAR text: EIDW 250800Z 29015KT 9999 FEW015 07/05 Q1010 NOSIG
Conditions at: EIDW (DUBLIN AIRPORT , IE) observed 0800 UTC 25 September 2020
Temperature: 7.0°C (45°F)
Dewpoint: 5.0°C (41°F) [RH = 87%]
Pressure (altimeter): 29.82 inches Hg (1010.0 mb)
Winds: from the WNW (290 degrees) at 17 MPH (15 knots; 7.7 m/s)
Visibility: 6 or more miles (10+ km)
Ceiling: at least 12,000 feet AGL
Clouds: few clouds at 1500 feet AGL
Weather: no significant weather observed at this time

METAR text: EIDW 250730Z 28013KT 9999 FEW015 06/04 Q1010 NOSIG
Conditions at: EIDW (DUBLIN AIRPORT , IE) observed 0730 UTC 25 September 2020
Temperature: 6.0°C (43°F)
Dewpoint: 4.0°C (39°F) [RH = 87%]
Pressure (altimeter): 29.82 inches Hg (1010.0 mb)
Winds: from the W (280 degrees) at 15 MPH (13 knots; 6.7 m/s)
Visibility: 6 or more miles (10+ km)
Ceiling: at least 12,000 feet AGL
Clouds: few clouds at 1500 feet AGL
Weather: no significant weather observed at this time

METAR text: EIDW 250700Z 28011KT 9999 FEW013 05/03 Q1010 NOSIG
Conditions at: EIDW (DUBLIN AIRPORT , IE) observed 0700 UTC 25 September 2020
Temperature: 5.0°C (41°F)
Dewpoint: 3.0°C (37°F) [RH = 87%]
Pressure (altimeter): 29.82 inches Hg (1010.0 mb)
Winds: from the W (280 degrees) at 13 MPH (11 knots; 5.7 m/s)
Visibility: 6 or more miles (10+ km)
Ceiling: at least 12,000 feet AGL
Clouds: few clouds at 1300 feet AGL
Weather: no significant weather observed at this time

METAR text: EIDW 250630Z 29011KT 9999 FEW014 04/03 Q1009 NOSIG
Conditions at: EIDW (DUBLIN AIRPORT , IE) observed 0630 UTC 25 September 2020
Temperature: 4.0°C (39°F)
Dewpoint: 3.0°C (37°F) [RH = 93%]
Pressure (altimeter): 29.79 inches Hg (1009.0 mb)
Winds: from the WNW (290 degrees) at 13 MPH (11 knots; 5.7 m/s)
Visibility: 6 or more miles (10+ km)
Ceiling: at least 12,000 feet AGL
Clouds: few clouds at 1400 feet AGL
Weather: no significant weather observed at this time

METAR text: EIDW 250600Z 29012KT 9999 FEW014 05/03 Q1009 NOSIG
Conditions at: EIDW (DUBLIN AIRPORT , IE) observed 0600 UTC 25 September 2020
Temperature: 5.0°C (41°F)
Dewpoint: 3.0°C (37°F) [RH = 87%]
Pressure (altimeter): 29.79 inches Hg (1009.0 mb)
Winds: from the WNW (290 degrees) at 14 MPH (12 knots; 6.2 m/s)
Visibility: 6 or more miles (10+ km)
Ceiling: at least 12,000 feet AGL
Clouds: few clouds at 1400 feet AGL
Weather: no significant weather observed at this time

METAR text: EIDW 250530Z 28013KT 9999 FEW014 04/03 Q1008 NOSIG
Conditions at: EIDW (DUBLIN AIRPORT , IE) observed 0530 UTC 25 September 2020
Temperature: 4.0°C (39°F)
Dewpoint: 3.0°C (37°F) [RH = 93%]
Pressure (altimeter): 29.76 inches Hg (1008.0 mb)
Winds: from the W (280 degrees) at 15 MPH (13 knots; 6.7 m/s)
Visibility: 6 or more miles (10+ km)
Ceiling: at least 12,000 feet AGL
Clouds: few clouds at 1400 feet AGL
Weather: no significant weather observed at this time

METAR text: EIDW 250500Z 29009KT 9999 FEW014 04/03 Q1008 NOSIG
Conditions at: EIDW (DUBLIN AIRPORT , IE) observed 0500 UTC 25 September 2020
Temperature: 4.0°C (39°F)
Dewpoint: 3.0°C (37°F) [RH = 93%]
Pressure (altimeter): 29.76 inches Hg (1008.0 mb)
Winds: from the WNW (290 degrees) at 10 MPH (9 knots; 4.6 m/s)
Visibility: 6 or more miles (10+ km)
Ceiling: at least 12,000 feet AGL
Clouds: few clouds at 1400 feet AGL
Weather: no significant weather observed at this time

METAR text: EIDW 250430Z 29010KT 9999 FEW014 05/03 Q1008 NOSIG
Conditions at: EIDW (DUBLIN AIRPORT , IE) observed 0430 UTC 25 September 2020
Temperature: 5.0°C (41°F)
Dewpoint: 3.0°C (37°F) [RH = 87%]
Pressure (altimeter): 29.76 inches Hg (1008.0 mb)
Winds: from the WNW (290 degrees) at 12 MPH (10 knots; 5.1 m/s)
Visibility: 6 or more miles (10+ km)
Ceiling: at least 12,000 feet AGL
Clouds: few clouds at 1400 feet AGL
Weather: no significant weather observed at this time

METAR text: EIDW 250400Z 29009KT 9999 FEW014 04/03 Q1007 NOSIG
Conditions at: EIDW (DUBLIN AIRPORT , IE) observed 0400 UTC 25 September 2020
Temperature: 4.0°C (39°F)
Dewpoint: 3.0°C (37°F) [RH = 93%]
Pressure (altimeter): 29.73 inches Hg (1007.0 mb)
Winds: from the WNW (290 degrees) at 10 MPH (9 knots; 4.6 m/s)
Visibility: 6 or more miles (10+ km)
Ceiling: at least 12,000 feet AGL
Clouds: few clouds at 1400 feet AGL
Weather: no significant weather observed at this time

METAR text: EIDW 250330Z 29010KT 9999 FEW014 SCT050 05/03 Q1007 NOSIG
Conditions at: EIDW (DUBLIN AIRPORT , IE) observed 0330 UTC 25 September 2020
Temperature: 5.0°C (41°F)
Dewpoint: 3.0°C (37°F) [RH = 87%]
Pressure (altimeter): 29.73 inches Hg (1007.0 mb)
Winds: from the WNW (290 degrees) at 12 MPH (10 knots; 5.1 m/s)
Visibility: 6 or more miles (10+ km)
Ceiling: at least 12,000 feet AGL
Clouds: few clouds at 1400 feet AGL
scattered clouds at 5000 feet AGL
Weather: no significant weather observed at this time

METAR text: EIDW 250300Z 30010KT 9999 FEW014 SCT050 05/03 Q1006 NOSIG
Conditions at: EIDW (DUBLIN AIRPORT , IE) observed 0300 UTC 25 September 2020
Temperature: 5.0°C (41°F)
Dewpoint: 3.0°C (37°F) [RH = 87%]
Pressure (altimeter): 29.70 inches Hg (1006.0 mb)
Winds: from the WNW (300 degrees) at 12 MPH (10 knots; 5.1 m/s)
Visibility: 6 or more miles (10+ km)
Ceiling: at least 12,000 feet AGL
Clouds: few clouds at 1400 feet AGL
scattered clouds at 5000 feet AGL
Weather: no significant weather observed at this time

METAR text: EIDW 250230Z 29009KT 9999 FEW014 05/03 Q1006 NOSIG
Conditions at: EIDW (DUBLIN AIRPORT , IE) observed 0230 UTC 25 September 2020
Temperature: 5.0°C (41°F)
Dewpoint: 3.0°C (37°F) [RH = 87%]
Pressure (altimeter): 29.70 inches Hg (1006.0 mb)
Winds: from the WNW (290 degrees) at 10 MPH (9 knots; 4.6 m/s)
Visibility: 6 or more miles (10+ km)
Ceiling: at least 12,000 feet AGL
Clouds: few clouds at 1400 feet AGL
Weather: no significant weather observed at this time

METAR text: EIDW 250200Z 30012KT 9999 FEW014 05/03 Q1006 NOSIG
Conditions at: EIDW (DUBLIN AIRPORT , IE) observed 0200 UTC 25 September 2020
Temperature: 5.0°C (41°F)
Dewpoint: 3.0°C (37°F) [RH = 87%]
Pressure (altimeter): 29.70 inches Hg (1006.0 mb)
Winds: from the WNW (300 degrees) at 14 MPH (12 knots; 6.2 m/s)
Visibility: 6 or more miles (10+ km)
Ceiling: at least 12,000 feet AGL
Clouds: few clouds at 1400 feet AGL
Weather: no significant weather observed at this time

METAR text: EIDW 250130Z 29010KT 9999 FEW014 05/03 Q1005 NOSIG
Conditions at: EIDW (DUBLIN AIRPORT , IE) observed 0130 UTC 25 September 2020
Temperature: 5.0°C (41°F)
Dewpoint: 3.0°C (37°F) [RH = 87%]
Pressure (altimeter): 29.68 inches Hg (1005.0 mb)
Winds: from the WNW (290 degrees) at 12 MPH (10 knots; 5.1 m/s)
Visibility: 6 or more miles (10+ km)
Ceiling: at least 12,000 feet AGL
Clouds: few clouds at 1400 feet AGL
Weather: no significant weather observed at this time

METAR text: EIDW 250100Z 30011KT 9999 FEW014 05/03 Q1004 NOSIG
Conditions at: EIDW (DUBLIN AIRPORT , IE) observed 0100 UTC 25 September 2020
Temperature: 5.0°C (41°F)
Dewpoint: 3.0°C (37°F) [RH = 87%]
Pressure (altimeter): 29.65 inches Hg (1004.0 mb)
Winds: from the WNW (300 degrees) at 13 MPH (11 knots; 5.7 m/s)
Visibility: 6 or more miles (10+ km)
Ceiling: at least 12,000 feet AGL
Clouds: few clouds at 1400 feet AGL
Weather: no significant weather observed at this time

METAR text: EIDW 250030Z 31011KT 9999 FEW014 SCT100 06/04 Q1004 NOSIG
Conditions at: EIDW (DUBLIN AIRPORT , IE) observed 0030 UTC 25 September 2020
Temperature: 6.0°C (43°F)
Dewpoint: 4.0°C (39°F) [RH = 87%]
Pressure (altimeter): 29.65 inches Hg (1004.0 mb)
Winds: from the NW (310 degrees) at 13 MPH (11 knots; 5.7 m/s)
Visibility: 6 or more miles (10+ km)
Ceiling: at least 12,000 feet AGL
Clouds: few clouds at 1400 feet AGL
scattered clouds at 10000 feet AGL
Weather: no significant weather observed at this time

METAR text: EIDW 250000Z 32012KT 9999 FEW014 SCT100 06/04 Q1003 NOSIG
Conditions at: EIDW (DUBLIN AIRPORT , IE) observed 0000 UTC 25 September 2020
Temperature: 6.0°C (43°F)
Dewpoint: 4.0°C (39°F) [RH = 87%]
Pressure (altimeter): 29.62 inches Hg (1003.0 mb)
Winds: from the NW (320 degrees) at 14 MPH (12 knots; 6.2 m/s)
Visibility: 6 or more miles (10+ km)
Ceiling: at least 12,000 feet AGL
Clouds: few clouds at 1400 feet AGL
scattered clouds at 10000 feet AGL
Weather: no significant weather observed at this time

METAR text: EIDW 242330Z 31013KT 9999 FEW014 06/04 Q1003 NOSIG
Conditions at: EIDW (DUBLIN AIRPORT , IE) observed 2330 UTC 24 September 2020
Temperature: 6.0°C (43°F)
Dewpoint: 4.0°C (39°F) [RH = 87%]
Pressure (altimeter): 29.62 inches Hg (1003.0 mb)
Winds: from the NW (310 degrees) at 15 MPH (13 knots; 6.7 m/s)
Visibility: 6 or more miles (10+ km)
Ceiling: at least 12,000 feet AGL
Clouds: few clouds at 1400 feet AGL
Weather: no significant weather observed at this time

METAR text: EIDW 242300Z 32013KT 9999 FEW014 06/04 Q1002 NOSIG
Conditions at: EIDW (DUBLIN AIRPORT , IE) observed 2300 UTC 24 September 2020
Temperature: 6.0°C (43°F)
Dewpoint: 4.0°C (39°F) [RH = 87%]
Pressure (altimeter): 29.59 inches Hg (1002.0 mb)
Winds: from the NW (320 degrees) at 15 MPH (13 knots; 6.7 m/s)
Visibility: 6 or more miles (10+ km)
Ceiling: at least 12,000 feet AGL
Clouds: few clouds at 1400 feet AGL
Weather: no significant weather observed at this time

METAR text: EIDW 242230Z 32014KT 9999 FEW014 06/05 Q1002 NOSIG
Conditions at: EIDW (DUBLIN AIRPORT , IE) observed 2230 UTC 24 September 2020
Temperature: 6.0°C (43°F)
Dewpoint: 5.0°C (41°F) [RH = 93%]
Pressure (altimeter): 29.59 inches Hg (1002.0 mb)
Winds: from the NW (320 degrees) at 16 MPH (14 knots; 7.2 m/s)
Visibility: 6 or more miles (10+ km)
Ceiling: at least 12,000 feet AGL
Clouds: few clouds at 1400 feet AGL
Weather: no significant weather observed at this time

METAR text: EIDW 242200Z 33014KT 9999 FEW014 06/05 Q1001 NOSIG
Conditions at: EIDW (DUBLIN AIRPORT , IE) observed 2200 UTC 24 September 2020
Temperature: 6.0°C (43°F)
Dewpoint: 5.0°C (41°F) [RH = 93%]
Pressure (altimeter): 29.56 inches Hg (1001.0 mb)
Winds: from the NNW (330 degrees) at 16 MPH (14 knots; 7.2 m/s)
Visibility: 6 or more miles (10+ km)
Ceiling: at least 12,000 feet AGL
Clouds: few clouds at 1400 feet AGL
Weather: no significant weather observed at this time

METAR text: EIDW 242130Z 33015KT 9999 FEW014 SCT060 07/05 Q1001 NOSIG
Conditions at: EIDW (DUBLIN AIRPORT , IE) observed 2130 UTC 24 September 2020
Temperature: 7.0°C (45°F)
Dewpoint: 5.0°C (41°F) [RH = 87%]
Pressure (altimeter): 29.56 inches Hg (1001.0 mb)
Winds: from the NNW (330 degrees) at 17 MPH (15 knots; 7.7 m/s)
Visibility: 6 or more miles (10+ km)
Ceiling: at least 12,000 feet AGL
Clouds: few clouds at 1400 feet AGL
scattered clouds at 6000 feet AGL
Weather: no significant weather observed at this time

METAR text: EIDW 242100Z 32015KT 9999 FEW014 SCT060 07/05 Q1000 NOSIG
Conditions at: EIDW (DUBLIN AIRPORT , IE) observed 2100 UTC 24 September 2020
Temperature: 7.0°C (45°F)
Dewpoint: 5.0°C (41°F) [RH = 87%]
Pressure (altimeter): 29.53 inches Hg (1000.0 mb)
Winds: from the NW (320 degrees) at 17 MPH (15 knots; 7.7 m/s)
Visibility: 6 or more miles (10+ km)
Ceiling: at least 12,000 feet AGL
Clouds: few clouds at 1400 feet AGL
scattered clouds at 6000 feet AGL
Weather: no significant weather observed at this time

METAR text: EIDW 242030Z 32012KT 9999 FEW014 FEW020CB BKN060 07/05 Q0999 NOSIG
Conditions at: EIDW (DUBLIN AIRPORT , IE) observed 2030 UTC 24 September 2020
Temperature: 7.0°C (45°F)
Dewpoint: 5.0°C (41°F) [RH = 87%]
Pressure (altimeter): 29.50 inches Hg (999.0 mb)
Winds: from the NW (320 degrees) at 14 MPH (12 knots; 6.2 m/s)
Visibility: 6 or more miles (10+ km)
Ceiling: 6000 feet AGL
Clouds: few clouds at 1400 feet AGL
few clouds at 2000 feet AGL
broken clouds at 6000 feet AGL
Weather: no significant weather observed at this time

METAR text: EIDW 242000Z 33009KT 300V360 9999 FEW014 FEW020CB BKN050 07/06 Q0999 NOSIG
Conditions at: EIDW (DUBLIN AIRPORT , IE) observed 2000 UTC 24 September 2020
Temperature: 7.0°C (45°F)
Dewpoint: 6.0°C (43°F) [RH = 93%]
Pressure (altimeter): 29.50 inches Hg (999.0 mb)
Winds: from the NNW (330 degrees) at 10 MPH (9 knots; 4.6 m/s)
Visibility: 6 or more miles (10+ km)
Ceiling: 5000 feet AGL
Clouds: few clouds at 1400 feet AGL
few clouds at 2000 feet AGL
broken clouds at 5000 feet AGL
Weather: no significant weather observed at this time

METAR text: EIDW 241930Z 35015KT 320V020 8000 -SHRA SCT014 FEW020CB BKN035 08/06 Q0998 NOSIG
Conditions at: EIDW (DUBLIN AIRPORT , IE) observed 1930 UTC 24 September 2020
Temperature: 8.0°C (46°F)
Dewpoint: 6.0°C (43°F) [RH = 87%]
Pressure (altimeter): 29.47 inches Hg (998.0 mb)
Winds: from the N (350 degrees) at 17 MPH (15 knots; 7.7 m/s)
Visibility: 5 miles ( 8 km)
Ceiling: 3500 feet AGL
Clouds: scattered clouds at 1400 feet AGL
few clouds at 2000 feet AGL
broken clouds at 3500 feet AGL
Weather: -SHRA  (light rain showers)

METAR text: EIDW 241900Z 34013KT 8000 -SHRA SCT017 BKN022 BKN035 08/06 Q0997 NOSIG
Conditions at: EIDW (DUBLIN AIRPORT , IE) observed 1900 UTC 24 September 2020
Temperature: 8.0°C (46°F)
Dewpoint: 6.0°C (43°F) [RH = 87%]
Pressure (altimeter): 29.44 inches Hg (997.0 mb)
Winds: from the NNW (340 degrees) at 15 MPH (13 knots; 6.7 m/s)
Visibility: 5 miles ( 8 km)
Ceiling: 2200 feet AGL
Clouds: scattered clouds at 1700 feet AGL
broken clouds at 2200 feet AGL
broken clouds at 3500 feet AGL
Weather: -SHRA  (light rain showers)

METAR text: EIDW 241830Z 35012KT 6000 -SHRA SCT017 BKN020 BKN035 08/05 Q0996 NOSIG
Conditions at: EIDW (DUBLIN AIRPORT , IE) observed 1830 UTC 24 September 2020
Temperature: 8.0°C (46°F)
Dewpoint: 5.0°C (41°F) [RH = 81%]
Pressure (altimeter): 29.41 inches Hg (996.0 mb)
Winds: from the N (350 degrees) at 14 MPH (12 knots; 6.2 m/s)
Visibility: 4 miles ( 6 km)
Ceiling: 2000 feet AGL
Clouds: scattered clouds at 1700 feet AGL
broken clouds at 2000 feet AGL
broken clouds at 3500 feet AGL
Weather: -SHRA  (light rain showers)

METAR text: EIDW 241800Z 35018KT 9999 -SHRA SCT017 BKN035 09/06 Q0995 NOSIG
Conditions at: EIDW (DUBLIN AIRPORT , IE) observed 1800 UTC 24 September 2020
Temperature: 9.0°C (48°F)
Dewpoint: 6.0°C (43°F) [RH = 81%]
Pressure (altimeter): 29.38 inches Hg (995.0 mb)
Winds: from the N (350 degrees) at 21 MPH (18 knots; 9.3 m/s)
Visibility: 6 or more miles (10+ km)
Ceiling: 3500 feet AGL
Clouds: scattered clouds at 1700 feet AGL
broken clouds at 3500 feet AGL
Weather: -SHRA  (light rain showers)

METAR text: EIDW 241730Z 01012KT 9999 -SHRA SCT017 BKN035 BKN130 09/07 Q0994 NOSIG
Conditions at: EIDW (DUBLIN AIRPORT , IE) observed 1730 UTC 24 September 2020
Temperature: 9.0°C (48°F)
Dewpoint: 7.0°C (45°F) [RH = 87%]
Pressure (altimeter): 29.35 inches Hg (994.0 mb)
Winds: from the N (10 degrees) at 14 MPH (12 knots; 6.2 m/s)
Visibility: 6 or more miles (10+ km)
Ceiling: 3500 feet AGL
Clouds: scattered clouds at 1700 feet AGL
broken clouds at 3500 feet AGL
broken clouds at 13000 feet AGL
Weather: -SHRA  (light rain showers)

METAR text: EIDW 241700Z 34013KT 9999 SCT017 BKN035 09/07 Q0994 NOSIG
Conditions at: EIDW (DUBLIN AIRPORT , IE) observed 1700 UTC 24 September 2020
Temperature: 9.0°C (48°F)
Dewpoint: 7.0°C (45°F) [RH = 87%]
Pressure (altimeter): 29.35 inches Hg (994.0 mb)
Winds: from the NNW (340 degrees) at 15 MPH (13 knots; 6.7 m/s)
Visibility: 6 or more miles (10+ km)
Ceiling: 3500 feet AGL
Clouds: scattered clouds at 1700 feet AGL
broken clouds at 3500 feet AGL
Weather: no significant weather observed at this time

METAR text: EIDW 241630Z 36018KT 9999 FEW012 BKN050 09/07 Q0993 NOSIG
Conditions at: EIDW (DUBLIN AIRPORT , IE) observed 1630 UTC 24 September 2020
Temperature: 9.0°C (48°F)
Dewpoint: 7.0°C (45°F) [RH = 87%]
Pressure (altimeter): 29.32 inches Hg (993.0 mb)
Winds: from the N (360 degrees) at 21 MPH (18 knots; 9.3 m/s)
Visibility: 6 or more miles (10+ km)
Ceiling: 5000 feet AGL
Clouds: few clouds at 1200 feet AGL
broken clouds at 5000 feet AGL
Weather: no significant weather observed at this time

METAR text: EIDW 241600Z 36015KT 9999 FEW012 BKN050 10/07 Q0992 NOSIG
Conditions at: EIDW (DUBLIN AIRPORT , IE) observed 1600 UTC 24 September 2020
Temperature: 10.0°C (50°F)
Dewpoint: 7.0°C (45°F) [RH = 82%]
Pressure (altimeter): 29.29 inches Hg (992.0 mb)
Winds: from the N (360 degrees) at 17 MPH (15 knots; 7.7 m/s)
Visibility: 6 or more miles (10+ km)
Ceiling: 5000 feet AGL
Clouds: few clouds at 1200 feet AGL
broken clouds at 5000 feet AGL
Weather: no significant weather observed at this time

METAR text: EIDW 241530Z 03012KT 9999 FEW012 SCT022 BKN060 11/08 Q0992 NOSIG
Conditions at: EIDW (DUBLIN AIRPORT , IE) observed 1530 UTC 24 September 2020
Temperature: 11.0°C (52°F)
Dewpoint: 8.0°C (46°F) [RH = 82%]
Pressure (altimeter): 29.29 inches Hg (992.0 mb)
Winds: from the NNE (30 degrees) at 14 MPH (12 knots; 6.2 m/s)
Visibility: 6 or more miles (10+ km)
Ceiling: 6000 feet AGL
Clouds: few clouds at 1200 feet AGL
scattered clouds at 2200 feet AGL
broken clouds at 6000 feet AGL
Weather: no significant weather observed at this time

METAR text: EIDW 241500Z 02009KT 340V050 9999 FEW012 SCT022 BKN060 11/08 Q0991 NOSIG
Conditions at: EIDW (DUBLIN AIRPORT , IE) observed 1500 UTC 24 September 2020
Temperature: 11.0°C (52°F)
Dewpoint: 8.0°C (46°F) [RH = 82%]
Pressure (altimeter): 29.26 inches Hg (991.0 mb)
Winds: from the NNE (20 degrees) at 10 MPH (9 knots; 4.6 m/s)
Visibility: 6 or more miles (10+ km)
Ceiling: 6000 feet AGL
Clouds: few clouds at 1200 feet AGL
scattered clouds at 2200 feet AGL
broken clouds at 6000 feet AGL
Weather: no significant weather observed at this time

METAR text: EIDW 241430Z 03009KT 010V070 9999 VCSH FEW010 BKN021 10/06 Q0991 NOSIG
Conditions at: EIDW (DUBLIN AIRPORT , IE) observed 1430 UTC 24 September 2020
Temperature: 10.0°C (50°F)
Dewpoint: 6.0°C (43°F) [RH = 76%]
Pressure (altimeter): 29.26 inches Hg (991.0 mb)
Winds: from the NNE (30 degrees) at 10 MPH (9 knots; 4.6 m/s)
Visibility: 6 or more miles (10+ km)
Ceiling: 2100 feet AGL
Clouds: few clouds at 1000 feet AGL
broken clouds at 2100 feet AGL
Weather: VCSH  (showers in vicinity)

METAR text: EIDW 241400Z 05010KT 9999 FEW012 BKN018 BKN050 10/06 Q0990 NOSIG
Conditions at: EIDW (DUBLIN AIRPORT , IE) observed 1400 UTC 24 September 2020
Temperature: 10.0°C (50°F)
Dewpoint: 6.0°C (43°F) [RH = 76%]
Pressure (altimeter): 29.23 inches Hg (990.0 mb)
Winds: from the NE (50 degrees) at 12 MPH (10 knots; 5.1 m/s)
Visibility: 6 or more miles (10+ km)
Ceiling: 1800 feet AGL
Clouds: few clouds at 1200 feet AGL
broken clouds at 1800 feet AGL
broken clouds at 5000 feet AGL
Weather: no significant weather observed at this time

METAR text: EIDW 241330Z 05010KT 9999 FEW012 SCT022 BKN040 10/06 Q0990 NOSIG
Conditions at: EIDW (DUBLIN AIRPORT , IE) observed 1330 UTC 24 September 2020
Temperature: 10.0°C (50°F)
Dewpoint: 6.0°C (43°F) [RH = 76%]
Pressure (altimeter): 29.23 inches Hg (990.0 mb)
Winds: from the NE (50 degrees) at 12 MPH (10 knots; 5.1 m/s)
Visibility: 6 or more miles (10+ km)
Ceiling: 4000 feet AGL
Clouds: few clouds at 1200 feet AGL
scattered clouds at 2200 feet AGL
broken clouds at 4000 feet AGL
Weather: no significant weather observed at this time

METAR text: EIDW 241300Z 01006KT 330V040 9999 FEW006 SCT018 BKN043 11/07 Q0989 NOSIG
Conditions at: EIDW (DUBLIN AIRPORT , IE) observed 1300 UTC 24 September 2020
Temperature: 11.0°C (52°F)
Dewpoint: 7.0°C (45°F) [RH = 76%]
Pressure (altimeter): 29.20 inches Hg (989.0 mb)
Winds: from the N (10 degrees) at 7 MPH (6 knots; 3.1 m/s)
Visibility: 6 or more miles (10+ km)
Ceiling: 4300 feet AGL
Clouds: few clouds at 600 feet AGL
scattered clouds at 1800 feet AGL
broken clouds at 4300 feet AGL
Weather: no significant weather observed at this time

METAR text: EIDW 241230Z VRB02KT 9999 VCSH FEW010 SCT020 BKN038 10/07 Q0989 NOSIG
Conditions at: EIDW (DUBLIN AIRPORT , IE) observed 1230 UTC 24 September 2020
Temperature: 10.0°C (50°F)
Dewpoint: 7.0°C (45°F) [RH = 82%]
Pressure (altimeter): 29.20 inches Hg (989.0 mb)
Winds: variable direction winds at 2 MPH (2 knots; 1.0 m/s)
Visibility: 6 or more miles (10+ km)
Ceiling: 3800 feet AGL
Clouds: few clouds at 1000 feet AGL
scattered clouds at 2000 feet AGL
broken clouds at 3800 feet AGL
Weather: VCSH  (showers in vicinity)

METAR text: EIDW 241200Z VRB02KT 9999 FEW013 SCT029 BKN180 10/06 Q0989 NOSIG
Conditions at: EIDW (DUBLIN AIRPORT , IE) observed 1200 UTC 24 September 2020
Temperature: 10.0°C (50°F)
Dewpoint: 6.0°C (43°F) [RH = 76%]
Pressure (altimeter): 29.20 inches Hg (989.0 mb)
Winds: variable direction winds at 2 MPH (2 knots; 1.0 m/s)
Visibility: 6 or more miles (10+ km)
Ceiling: 18000 feet AGL
Clouds: few clouds at 1300 feet AGL
scattered clouds at 2900 feet AGL
broken clouds at 18000 feet AGL
Weather: no significant weather observed at this time

METAR text: EIDW 241130Z VRB02KT 9999 FEW013 SCT029 BKN180 09/07 Q0988 NOSIG
Conditions at: EIDW (DUBLIN AIRPORT , IE) observed 1130 UTC 24 September 2020
Temperature: 9.0°C (48°F)
Dewpoint: 7.0°C (45°F) [RH = 87%]
Pressure (altimeter): 29.17 inches Hg (988.0 mb)
Winds: variable direction winds at 2 MPH (2 knots; 1.0 m/s)
Visibility: 6 or more miles (10+ km)
Ceiling: 18000 feet AGL
Clouds: few clouds at 1300 feet AGL
scattered clouds at 2900 feet AGL
broken clouds at 18000 feet AGL
Weather: no significant weather observed at this time

METAR text: EIDW 241100Z 18007KT 140V230 9999 -SHRA FEW013 BKN018 BKN180 09/07 Q0988 NOSIG
Conditions at: EIDW (DUBLIN AIRPORT , IE) observed 1100 UTC 24 September 2020
Temperature: 9.0°C (48°F)
Dewpoint: 7.0°C (45°F) [RH = 87%]
Pressure (altimeter): 29.17 inches Hg (988.0 mb)
Winds: from the S (180 degrees) at 8 MPH (7 knots; 3.6 m/s)
Visibility: 6 or more miles (10+ km)
Ceiling: 1800 feet AGL
Clouds: few clouds at 1300 feet AGL
broken clouds at 1800 feet AGL
broken clouds at 18000 feet AGL
Weather: -SHRA  (light rain showers)

METAR text: EIDW 241030Z 18007KT 140V230 9999 -RA FEW010 SCT015 BKN018 09/07 Q0988 NOSIG
Conditions at: EIDW (DUBLIN AIRPORT , IE) observed 1030 UTC 24 September 2020
Temperature: 9.0°C (48°F)
Dewpoint: 7.0°C (45°F) [RH = 87%]
Pressure (altimeter): 29.17 inches Hg (988.0 mb)
Winds: from the S (180 degrees) at 8 MPH (7 knots; 3.6 m/s)
Visibility: 6 or more miles (10+ km)
Ceiling: 1800 feet AGL
Clouds: few clouds at 1000 feet AGL
scattered clouds at 1500 feet AGL
broken clouds at 1800 feet AGL
Weather: -RA  (light rain)

METAR text: EIDW 241000Z 17007KT 130V200 9999 FEW010 SCT018 BKN180 09/08 Q0987 NOSIG
Conditions at: EIDW (DUBLIN AIRPORT , IE) observed 1000 UTC 24 September 2020
Temperature: 9.0°C (48°F)
Dewpoint: 8.0°C (46°F) [RH = 93%]
Pressure (altimeter): 29.14 inches Hg (987.0 mb)
Winds: from the S (170 degrees) at 8 MPH (7 knots; 3.6 m/s)
Visibility: 6 or more miles (10+ km)
Ceiling: 18000 feet AGL
Clouds: few clouds at 1000 feet AGL
scattered clouds at 1800 feet AGL
broken clouds at 18000 feet AGL
Weather: no significant weather observed at this time

METAR text: EIDW 240930Z 17007KT 130V230 3500 -RA FEW008 BKN012 BKN020 08/06 Q0987 NOSIG
Conditions at: EIDW (DUBLIN AIRPORT , IE) observed 0930 UTC 24 September 2020
Temperature: 8.0°C (46°F)
Dewpoint: 6.0°C (43°F) [RH = 87%]
Pressure (altimeter): 29.14 inches Hg (987.0 mb)
Winds: from the S (170 degrees) at 8 MPH (7 knots; 3.6 m/s)
Visibility: 2.17 miles (3.49 km)
Ceiling: 1200 feet AGL
Clouds: few clouds at 800 feet AGL
broken clouds at 1200 feet AGL
broken clouds at 2000 feet AGL
Weather: -RA  (light rain)

METAR text: EIDW 240900Z 20006KT 170V240 9999 -RA FEW008 BKN013 BKN024 08/06 Q0987 NOSIG
Conditions at: EIDW (DUBLIN AIRPORT , IE) observed 0900 UTC 24 September 2020
Temperature: 8.0°C (46°F)
Dewpoint: 6.0°C (43°F) [RH = 87%]
Pressure (altimeter): 29.14 inches Hg (987.0 mb)
Winds: from the SSW (200 degrees) at 7 MPH (6 knots; 3.1 m/s)
Visibility: 6 or more miles (10+ km)
Ceiling: 1300 feet AGL
Clouds: few clouds at 800 feet AGL
broken clouds at 1300 feet AGL
broken clouds at 2400 feet AGL
Weather: -RA  (light rain)

METAR text: EIDW 240830Z 19005KT 160V230 9999 -RA FEW008 SCT015 BKN024 07/06 Q0986 NOSIG
Conditions at: EIDW (DUBLIN AIRPORT , IE) observed 0830 UTC 24 September 2020
Temperature: 7.0°C (45°F)
Dewpoint: 6.0°C (43°F) [RH = 93%]
Pressure (altimeter): 29.11 inches Hg (986.0 mb)
Winds: from the S (190 degrees) at 6 MPH (5 knots; 2.6 m/s)
Visibility: 6 or more miles (10+ km)
Ceiling: 2400 feet AGL
Clouds: few clouds at 800 feet AGL
scattered clouds at 1500 feet AGL
broken clouds at 2400 feet AGL
Weather: -RA  (light rain)

METAR text: EIDW 240800Z 22009KT 180V260 9999 FEW007 BKN010 BKN024 07/06 Q0986 NOSIG
Conditions at: EIDW (DUBLIN AIRPORT , IE) observed 0800 UTC 24 September 2020
Temperature: 7.0°C (45°F)
Dewpoint: 6.0°C (43°F) [RH = 93%]
Pressure (altimeter): 29.11 inches Hg (986.0 mb)
Winds: from the SW (220 degrees) at 10 MPH (9 knots; 4.6 m/s)
Visibility: 6 or more miles (10+ km)
Ceiling: 1000 feet AGL
Clouds: few clouds at 700 feet AGL
broken clouds at 1000 feet AGL
broken clouds at 2400 feet AGL
Weather: no significant weather observed at this time

METAR text: EIDW 240730Z 23008KT 200V280 9999 FEW007 SCT024 BKN040 07/06 Q0986 NOSIG
Conditions at: EIDW (DUBLIN AIRPORT , IE) observed 0730 UTC 24 September 2020
Temperature: 7.0°C (45°F)
Dewpoint: 6.0°C (43°F) [RH = 93%]
Pressure (altimeter): 29.11 inches Hg (986.0 mb)
Winds: from the SW (230 degrees) at 9 MPH (8 knots; 4.1 m/s)
Visibility: 6 or more miles (10+ km)
Ceiling: 4000 feet AGL
Clouds: few clouds at 700 feet AGL
scattered clouds at 2400 feet AGL
broken clouds at 4000 feet AGL
Weather: no significant weather observed at this time

METAR text: EIDW 240700Z 23008KT 180V280 9999 FEW007 FEW018CB BKN035 07/06 Q0986 NOSIG
Conditions at: EIDW (DUBLIN AIRPORT , IE) observed 0700 UTC 24 September 2020
Temperature: 7.0°C (45°F)
Dewpoint: 6.0°C (43°F) [RH = 93%]
Pressure (altimeter): 29.11 inches Hg (986.0 mb)
Winds: from the SW (230 degrees) at 9 MPH (8 knots; 4.1 m/s)
Visibility: 6 or more miles (10+ km)
Ceiling: 3500 feet AGL
Clouds: few clouds at 700 feet AGL
few clouds at 1800 feet AGL
broken clouds at 3500 feet AGL
Weather: no significant weather observed at this time

Forecast for: EIDW (DUBLIN AIRPORT , IE)
Text: TAF EIDW 251700Z 2518/2618 30010KT 9999 FEW020 SCT050
Forecast period: 1800 UTC 25 September 2020 to 0700 UTC 26 September 2020
Forecast type: FROM: standard forecast or significant change
Winds: from the WNW (300 degrees) at 12 MPH (10 knots; 5.1 m/s)
Visibility: 6 or more miles (10+ km)
Ceiling: at least 12,000 feet AGL
Clouds: few clouds at 2000 feet AGL
scattered clouds at 5000 feet AGL
Weather: no significant weather forecast for this period
Text: BECMG 2607/2609 34010KT
Forecast period: 0700 to 1800 UTC 26 September 2020
Forecast type: BECOMING: Conditions expected to become as follows by 0900 UTC 26 September 2020
Winds: from the NNW (340 degrees) at 12 MPH (10 knots; 5.1 m/s)
Visibility: 6 or more miles (10+ km)
Ceiling: at least 12,000 feet AGL
Clouds: few clouds at 2000 feet AGL
scattered clouds at 5000 feet AGL
Weather: no significant weather forecast for this period